Terminal Aerodrome Forecast
Issued by NWS Melbourne, FL

Home | Current Version | Previous Version | Text Only | Print | Product List | Glossary On
Versions: 1 2 3 4 5 6 7 8 9 10 11 12 13 14 15 16 17
000
FTUS42 KMLB 021135
TAFDAB
TAF
KDAB 021135Z 0212/0312 36003KT 3/4SM BR OVC003
      TEMPO 0212/0213 1/2SM FG VV003
     FM021400 36005KT 3SM BR BKN008
     FM021500 02005KT P6SM BKN015
     FM021800 04006KT P6SM BKN025
     FM022000 05007KT P6SM SCT030 BKN250
     FM030000 02003KT P6SM FEW020 BKN250
     FM030600 02003KT 5SM BR BKN005
      TEMPO 0308/0312 2SM BR OVC004=

USA.gov is the U.S. government's official web portal to all federal, state and local government web resources and services.